sensor_id;sensor_type;location;lat;lon;timestamp;temperature;humidity
53208;DHT22;39093;52.788;6.940;2022-09-09T00:07:46;14.50;99.90
53208;DHT22;39093;52.788;6.940;2022-09-09T00:10:28;14.50;99.90
53208;DHT22;39093;52.788;6.940;2022-09-09T00:13:26;14.50;99.90
53208;DHT22;39093;52.788;6.940;2022-09-09T00:16:18;14.50;99.90
53208;DHT22;39093;52.788;6.940;2022-09-09T00:24:42;14.40;99.90
53208;DHT22;39093;52.788;6.940;2022-09-09T00:27:37;14.40;99.90
53208;DHT22;39093;52.788;6.940;2022-09-09T00:30:19;14.40;99.90
53208;DHT22;39093;52.788;6.940;2022-09-09T00:33:00;14.40;99.90
53208;DHT22;39093;52.788;6.940;2022-09-09T00:35:31;14.40;99.90
53208;DHT22;39093;52.788;6.940;2022-09-09T00:38:19;14.30;99.90
53208;DHT22;39093;52.788;6.940;2022-09-09T00:40:53;14.30;99.90
53208;DHT22;39093;52.788;6.940;2022-09-09T00:43:29;14.30;99.90
53208;DHT22;39093;52.788;6.940;2022-09-09T00:46:09;14.30;99.90
53208;DHT22;39093;52.788;6.940;2022-09-09T00:49:40;14.30;99.90
53208;DHT22;39093;52.788;6.940;2022-09-09T00:54:53;14.20;99.90
53208;DHT22;39093;52.788;6.940;2022-09-09T00:57:31;14.20;99.90
53208;DHT22;39093;52.788;6.940;2022-09-09T01:00:21;14.20;99.90
53208;DHT22;39093;52.788;6.940;2022-09-09T01:03:18;14.20;99.90
53208;DHT22;39093;52.788;6.940;2022-09-09T01:11:57;14.30;99.90
53208;DHT22;39093;52.788;6.940;2022-09-09T01:17:31;14.30;99.90
53208;DHT22;39093;52.788;6.940;2022-09-09T01:28:16;14.40;99.90
53208;DHT22;39093;52.788;6.940;2022-09-09T01:30:46;14.40;99.90
53208;DHT22;39093;52.788;6.940;2022-09-09T01:33:15;14.40;99.90
53208;DHT22;39093;52.788;6.940;2022-09-09T01:35:54;14.40;99.90
53208;DHT22;39093;52.788;6.940;2022-09-09T01:38:24;14.40;99.90
53208;DHT22;39093;52.788;6.940;2022-09-09T01:40:51;14.40;99.90
53208;DHT22;39093;52.788;6.940;2022-09-09T01:43:24;14.40;99.90
53208;DHT22;39093;52.788;6.940;2022-09-09T01:45:54;14.40;99.90
53208;DHT22;39093;52.788;6.940;2022-09-09T01:48:23;14.40;99.90
53208;DHT22;39093;52.788;6.940;2022-09-09T01:50:51;14.40;99.90
53208;DHT22;39093;52.788;6.940;2022-09-09T01:53:21;14.50;99.90
53208;DHT22;39093;52.788;6.940;2022-09-09T02:04:43;14.30;99.90
53208;DHT22;39093;52.788;6.940;2022-09-09T02:07:42;14.40;99.90
53208;DHT22;39093;52.788;6.940;2022-09-09T02:10:21;14.40;99.90
53208;DHT22;39093;52.788;6.940;2022-09-09T02:12:55;14.40;99.90
53208;DHT22;39093;52.788;6.940;2022-09-09T02:15:42;14.50;99.90
53208;DHT22;39093;52.788;6.940;2022-09-09T02:18:13;14.30;99.90
53208;DHT22;39093;52.788;6.940;2022-09-09T02:20:43;14.40;99.90
53208;DHT22;39093;52.788;6.940;2022-09-09T02:23:14;14.40;99.90
53208;DHT22;39093;52.788;6.940;2022-09-09T02:25:43;14.30;99.90
53208;DHT22;39093;52.788;6.940;2022-09-09T02:28:12;14.30;99.90
53208;DHT22;39093;52.788;6.940;2022-09-09T02:30:42;14.30;99.90
53208;DHT22;39093;52.788;6.940;2022-09-09T02:33:14;14.40;99.90
53208;DHT22;39093;52.788;6.940;2022-09-09T02:35:43;14.40;99.90
53208;DHT22;39093;52.788;6.940;2022-09-09T02:38:15;14.40;99.90
53208;DHT22;39093;52.788;6.940;2022-09-09T02:40:43;14.40;99.90
53208;DHT22;39093;52.788;6.940;2022-09-09T02:43:09;14.50;99.90
53208;DHT22;39093;52.788;6.940;2022-09-09T02:45:43;14.40;99.90
53208;DHT22;39093;52.788;6.940;2022-09-09T02:48:29;14.30;99.90
53208;DHT22;39093;52.788;6.940;2022-09-09T02:51:10;14.30;99.90
53208;DHT22;39093;52.788;6.940;2022-09-09T02:56:49;14.50;99.90
53208;DHT22;39093;52.788;6.940;2022-09-09T02:59:18;14.40;99.90
53208;DHT22;39093;52.788;6.940;2022-09-09T03:01:46;14.40;99.90
53208;DHT22;39093;52.788;6.940;2022-09-09T03:04:13;14.40;99.90
53208;DHT22;39093;52.788;6.940;2022-09-09T03:06:41;14.40;99.90
53208;DHT22;39093;52.788;6.940;2022-09-09T03:09:08;14.50;99.90
53208;DHT22;39093;52.788;6.940;2022-09-09T03:11:37;14.40;99.90
53208;DHT22;39093;52.788;6.940;2022-09-09T03:14:05;14.40;99.90
53208;DHT22;39093;52.788;6.940;2022-09-09T03:16:32;14.40;99.90
53208;DHT22;39093;52.788;6.940;2022-09-09T03:19:01;14.40;99.90
53208;DHT22;39093;52.788;6.940;2022-09-09T03:21:28;14.40;99.90
53208;DHT22;39093;52.788;6.940;2022-09-09T03:23:55;14.30;99.90
53208;DHT22;39093;52.788;6.940;2022-09-09T03:26:22;14.30;99.90
53208;DHT22;39093;52.788;6.940;2022-09-09T03:28:49;14.30;99.90
53208;DHT22;39093;52.788;6.940;2022-09-09T03:31:19;14.30;99.90
53208;DHT22;39093;52.788;6.940;2022-09-09T03:33:46;14.30;99.90
53208;DHT22;39093;52.788;6.940;2022-09-09T03:36:13;14.30;99.90
53208;DHT22;39093;52.788;6.940;2022-09-09T03:38:41;14.30;99.90
53208;DHT22;39093;52.788;6.940;2022-09-09T03:41:09;14.30;99.90
53208;DHT22;39093;52.788;6.940;2022-09-09T03:43:35;14.20;99.90
53208;DHT22;39093;52.788;6.940;2022-09-09T03:46:03;14.30;99.90
53208;DHT22;39093;52.788;6.940;2022-09-09T03:48:30;14.20;99.90
53208;DHT22;39093;52.788;6.940;2022-09-09T03:50:57;14.20;99.90
53208;DHT22;39093;52.788;6.940;2022-09-09T03:53:27;14.30;99.90
53208;DHT22;39093;52.788;6.940;2022-09-09T03:55:55;14.20;99.90
53208;DHT22;39093;52.788;6.940;2022-09-09T03:58:23;14.20;99.90
53208;DHT22;39093;52.788;6.940;2022-09-09T04:00:58;14.20;99.90
53208;DHT22;39093;52.788;6.940;2022-09-09T04:03:26;14.20;99.90
53208;DHT22;39093;52.788;6.940;2022-09-09T04:05:56;14.30;99.90
53208;DHT22;39093;52.788;6.940;2022-09-09T04:08:23;14.20;99.90
53208;DHT22;39093;52.788;6.940;2022-09-09T04:10:54;14.20;99.90
53208;DHT22;39093;52.788;6.940;2022-09-09T04:13:25;14.20;99.90
53208;DHT22;39093;52.788;6.940;2022-09-09T04:15:57;14.30;99.90
53208;DHT22;39093;52.788;6.940;2022-09-09T04:18:25;14.20;99.90
53208;DHT22;39093;52.788;6.940;2022-09-09T04:20:53;14.20;99.90
53208;DHT22;39093;52.788;6.940;2022-09-09T04:23:20;14.20;99.90
53208;DHT22;39093;52.788;6.940;2022-09-09T04:25:52;14.30;99.90
53208;DHT22;39093;52.788;6.940;2022-09-09T04:28:22;14.20;99.90
53208;DHT22;39093;52.788;6.940;2022-09-09T04:30:50;14.20;99.90
53208;DHT22;39093;52.788;6.940;2022-09-09T04:33:18;14.20;99.90
53208;DHT22;39093;52.788;6.940;2022-09-09T04:35:46;14.20;99.90
53208;DHT22;39093;52.788;6.940;2022-09-09T04:38:14;14.20;99.90
53208;DHT22;39093;52.788;6.940;2022-09-09T04:40:43;14.10;99.90
53208;DHT22;39093;52.788;6.940;2022-09-09T04:43:11;14.20;99.90
53208;DHT22;39093;52.788;6.940;2022-09-09T04:45:43;14.20;99.90
53208;DHT22;39093;52.788;6.940;2022-09-09T04:48:13;14.20;99.90
53208;DHT22;39093;52.788;6.940;2022-09-09T04:50:40;14.10;99.90
53208;DHT22;39093;52.788;6.940;2022-09-09T04:53:07;14.10;99.90
53208;DHT22;39093;52.788;6.940;2022-09-09T04:55:34;14.20;99.90
53208;DHT22;39093;52.788;6.940;2022-09-09T04:58:06;14.20;99.90
53208;DHT22;39093;52.788;6.940;2022-09-09T05:00:34;14.20;99.90
53208;DHT22;39093;52.788;6.940;2022-09-09T05:03:04;14.10;99.90
53208;DHT22;39093;52.788;6.940;2022-09-09T05:05:32;14.10;99.90
53208;DHT22;39093;52.788;6.940;2022-09-09T05:08:05;14.10;99.90
53208;DHT22;39093;52.788;6.940;2022-09-09T05:10:33;14.10;99.90
53208;DHT22;39093;52.788;6.940;2022-09-09T05:13:00;14.10;99.90
53208;DHT22;39093;52.788;6.940;2022-09-09T05:15:27;14.10;99.90
53208;DHT22;39093;52.788;6.940;2022-09-09T05:18:01;14.10;99.90
53208;DHT22;39093;52.788;6.940;2022-09-09T05:20:29;14.10;99.90
53208;DHT22;39093;52.788;6.940;2022-09-09T05:22:56;14.10;99.90
53208;DHT22;39093;52.788;6.940;2022-09-09T05:25:24;14.10;99.90
53208;DHT22;39093;52.788;6.940;2022-09-09T05:27:52;14.10;99.90
53208;DHT22;39093;52.788;6.940;2022-09-09T05:30:21;14.10;99.90
53208;DHT22;39093;52.788;6.940;2022-09-09T05:32:49;14.10;99.90
53208;DHT22;39093;52.788;6.940;2022-09-09T05:35:17;14.00;99.90
53208;DHT22;39093;52.788;6.940;2022-09-09T05:37:45;14.10;99.90
53208;DHT22;39093;52.788;6.940;2022-09-09T05:40:12;14.10;99.90
53208;DHT22;39093;52.788;6.940;2022-09-09T05:42:40;14.10;99.90
53208;DHT22;39093;52.788;6.940;2022-09-09T05:45:08;14.10;99.90
53208;DHT22;39093;52.788;6.940;2022-09-09T05:47:36;14.10;99.90
53208;DHT22;39093;52.788;6.940;2022-09-09T05:50:04;14.10;99.90
53208;DHT22;39093;52.788;6.940;2022-09-09T05:52:31;14.00;99.90
53208;DHT22;39093;52.788;6.940;2022-09-09T05:54:59;14.10;99.90
53208;DHT22;39093;52.788;6.940;2022-09-09T05:57:26;14.10;99.90
53208;DHT22;39093;52.788;6.940;2022-09-09T05:59:53;14.10;99.90
53208;DHT22;39093;52.788;6.940;2022-09-09T06:02:23;14.10;99.90
53208;DHT22;39093;52.788;6.940;2022-09-09T06:04:50;14.20;99.90
53208;DHT22;39093;52.788;6.940;2022-09-09T06:07:18;14.30;99.90
53208;DHT22;39093;52.788;6.940;2022-09-09T06:09:45;14.20;99.90
53208;DHT22;39093;52.788;6.940;2022-09-09T06:12:12;14.20;99.90
53208;DHT22;39093;52.788;6.940;2022-09-09T06:14:38;14.30;99.90
53208;DHT22;39093;52.788;6.940;2022-09-09T06:17:11;14.30;99.90
53208;DHT22;39093;52.788;6.940;2022-09-09T06:19:38;14.30;99.90
53208;DHT22;39093;52.788;6.940;2022-09-09T06:22:05;14.30;99.90
53208;DHT22;39093;52.788;6.940;2022-09-09T06:24:32;14.20;99.90
53208;DHT22;39093;52.788;6.940;2022-09-09T06:26:59;14.30;99.90
53208;DHT22;39093;52.788;6.940;2022-09-09T06:29:27;14.30;99.90
53208;DHT22;39093;52.788;6.940;2022-09-09T06:31:53;14.30;99.90
53208;DHT22;39093;52.788;6.940;2022-09-09T06:34:20;14.30;99.90
53208;DHT22;39093;52.788;6.940;2022-09-09T06:36:48;14.30;99.90
53208;DHT22;39093;52.788;6.940;2022-09-09T06:39:15;14.30;99.90
53208;DHT22;39093;52.788;6.940;2022-09-09T06:41:42;14.30;99.90
53208;DHT22;39093;52.788;6.940;2022-09-09T06:44:09;14.40;99.90
53208;DHT22;39093;52.788;6.940;2022-09-09T06:46:39;14.40;99.90
53208;DHT22;39093;52.788;6.940;2022-09-09T06:49:15;14.40;99.90
53208;DHT22;39093;52.788;6.940;2022-09-09T06:51:42;14.40;99.90
53208;DHT22;39093;52.788;6.940;2022-09-09T06:54:17;14.40;99.90
53208;DHT22;39093;52.788;6.940;2022-09-09T06:56:46;14.40;99.90
53208;DHT22;39093;52.788;6.940;2022-09-09T06:59:13;14.50;99.90
53208;DHT22;39093;52.788;6.940;2022-09-09T07:01:42;14.50;99.90
53208;DHT22;39093;52.788;6.940;2022-09-09T07:04:10;14.60;99.90
53208;DHT22;39093;52.788;6.940;2022-09-09T07:06:43;14.60;99.90
53208;DHT22;39093;52.788;6.940;2022-09-09T07:09:12;14.60;99.90
53208;DHT22;39093;52.788;6.940;2022-09-09T07:11:45;14.60;99.90
53208;DHT22;39093;52.788;6.940;2022-09-09T07:14:15;14.60;99.90
53208;DHT22;39093;52.788;6.940;2022-09-09T07:16:43;14.70;99.90
53208;DHT22;39093;52.788;6.940;2022-09-09T07:19:11;14.80;99.90
53208;DHT22;39093;52.788;6.940;2022-09-09T07:21:42;14.80;99.90
53208;DHT22;39093;52.788;6.940;2022-09-09T07:24:10;14.90;99.90
53208;DHT22;39093;52.788;6.940;2022-09-09T07:26:41;14.80;99.90
53208;DHT22;39093;52.788;6.940;2022-09-09T07:29:08;14.90;99.90
53208;DHT22;39093;52.788;6.940;2022-09-09T07:31:37;15.10;99.90
53208;DHT22;39093;52.788;6.940;2022-09-09T07:34:05;15.00;99.90
53208;DHT22;39093;52.788;6.940;2022-09-09T07:36:35;15.10;99.90
53208;DHT22;39093;52.788;6.940;2022-09-09T07:39:06;15.10;99.90
53208;DHT22;39093;52.788;6.940;2022-09-09T07:41:42;15.20;99.90
53208;DHT22;39093;52.788;6.940;2022-09-09T07:44:13;15.30;99.90
53208;DHT22;39093;52.788;6.940;2022-09-09T07:46:43;15.30;99.90
53208;DHT22;39093;52.788;6.940;2022-09-09T07:49:12;15.30;99.90
53208;DHT22;39093;52.788;6.940;2022-09-09T07:51:41;15.30;99.90
53208;DHT22;39093;52.788;6.940;2022-09-09T07:54:11;15.40;99.90
53208;DHT22;39093;52.788;6.940;2022-09-09T07:56:39;15.40;99.90
53208;DHT22;39093;52.788;6.940;2022-09-09T07:59:09;15.50;99.90
53208;DHT22;39093;52.788;6.940;2022-09-09T08:01:42;15.60;99.90
53208;DHT22;39093;52.788;6.940;2022-09-09T08:04:16;15.80;99.90
53208;DHT22;39093;52.788;6.940;2022-09-09T08:07:01;15.90;99.90
53208;DHT22;39093;52.788;6.940;2022-09-09T08:09:29;15.90;99.90
53208;DHT22;39093;52.788;6.940;2022-09-09T08:11:58;16.00;99.90
53208;DHT22;39093;52.788;6.940;2022-09-09T08:14:27;16.10;99.90
53208;DHT22;39093;52.788;6.940;2022-09-09T08:17:07;16.10;99.90
53208;DHT22;39093;52.788;6.940;2022-09-09T08:19:34;16.20;99.90
53208;DHT22;39093;52.788;6.940;2022-09-09T08:22:02;16.30;99.90
53208;DHT22;39093;52.788;6.940;2022-09-09T08:24:31;16.40;99.90
53208;DHT22;39093;52.788;6.940;2022-09-09T08:27:01;16.50;99.90
53208;DHT22;39093;52.788;6.940;2022-09-09T08:29:31;16.60;99.90
53208;DHT22;39093;52.788;6.940;2022-09-09T08:32:02;16.60;99.90
53208;DHT22;39093;52.788;6.940;2022-09-09T08:34:29;16.60;99.90
53208;DHT22;39093;52.788;6.940;2022-09-09T08:36:57;16.80;99.90
53208;DHT22;39093;52.788;6.940;2022-09-09T08:39:24;16.70;99.90
53208;DHT22;39093;52.788;6.940;2022-09-09T08:50:30;16.90;99.90
53208;DHT22;39093;52.788;6.940;2022-09-09T08:53:16;17.00;99.90
53208;DHT22;39093;52.788;6.940;2022-09-09T08:55:50;17.20;99.90
53208;DHT22;39093;52.788;6.940;2022-09-09T08:58:18;17.10;99.90
53208;DHT22;39093;52.788;6.940;2022-09-09T09:03:57;17.10;99.90
53208;DHT22;39093;52.788;6.940;2022-09-09T09:12:02;17.20;99.90
53208;DHT22;39093;52.788;6.940;2022-09-09T09:14:33;17.20;99.90
53208;DHT22;39093;52.788;6.940;2022-09-09T09:17:03;17.20;99.90
53208;DHT22;39093;52.788;6.940;2022-09-09T09:19:34;17.30;99.90
53208;DHT22;39093;52.788;6.940;2022-09-09T09:22:22;17.50;99.90
53208;DHT22;39093;52.788;6.940;2022-09-09T09:24:57;17.60;99.90
53208;DHT22;39093;52.788;6.940;2022-09-09T09:27:40;17.60;99.90
53208;DHT22;39093;52.788;6.940;2022-09-09T09:30:26;17.50;99.90
53208;DHT22;39093;52.788;6.940;2022-09-09T09:33:17;17.40;99.90
53208;DHT22;39093;52.788;6.940;2022-09-09T09:35:44;17.50;99.90
53208;DHT22;39093;52.788;6.940;2022-09-09T09:38:23;17.60;99.90
53208;DHT22;39093;52.788;6.940;2022-09-09T09:41:10;17.70;99.90
53208;DHT22;39093;52.788;6.940;2022-09-09T09:43:40;17.80;99.90
53208;DHT22;39093;52.788;6.940;2022-09-09T09:46:23;17.90;99.90
53208;DHT22;39093;52.788;6.940;2022-09-09T09:48:59;18.00;99.90
53208;DHT22;39093;52.788;6.940;2022-09-09T09:51:32;18.00;99.90
53208;DHT22;39093;52.788;6.940;2022-09-09T09:54:14;18.20;99.90
53208;DHT22;39093;52.788;6.940;2022-09-09T09:56:43;18.40;99.90
53208;DHT22;39093;52.788;6.940;2022-09-09T10:04:44;18.90;99.90
53208;DHT22;39093;52.788;6.940;2022-09-09T10:07:23;18.80;99.90
53208;DHT22;39093;52.788;6.940;2022-09-09T10:10:05;18.80;99.90
53208;DHT22;39093;52.788;6.940;2022-09-09T10:12:59;18.80;99.90
53208;DHT22;39093;52.788;6.940;2022-09-09T10:27:52;19.00;99.90
53208;DHT22;39093;52.788;6.940;2022-09-09T10:35:36;19.00;99.90
53208;DHT22;39093;52.788;6.940;2022-09-09T10:38:28;19.10;99.90
53208;DHT22;39093;52.788;6.940;2022-09-09T10:41:05;19.20;99.90
53208;DHT22;39093;52.788;6.940;2022-09-09T10:46:32;19.40;99.90
53208;DHT22;39093;52.788;6.940;2022-09-09T10:52:07;19.70;99.90
53208;DHT22;39093;52.788;6.940;2022-09-09T10:54:59;19.90;99.90
53208;DHT22;39093;52.788;6.940;2022-09-09T10:57:33;19.90;99.90
53208;DHT22;39093;52.788;6.940;2022-09-09T11:00:06;19.90;99.90
53208;DHT22;39093;52.788;6.940;2022-09-09T11:02:41;19.80;99.90
53208;DHT22;39093;52.788;6.940;2022-09-09T11:10:48;20.10;99.90
53208;DHT22;39093;52.788;6.940;2022-09-09T11:13:30;20.10;99.90
53208;DHT22;39093;52.788;6.940;2022-09-09T11:21:49;20.00;99.90
53208;DHT22;39093;52.788;6.940;2022-09-09T11:24:27;19.90;99.90
53208;DHT22;39093;52.788;6.940;2022-09-09T11:27:01;19.90;99.90
53208;DHT22;39093;52.788;6.940;2022-09-09T11:38:09;20.20;99.90
53208;DHT22;39093;52.788;6.940;2022-09-09T11:40:40;20.20;99.90
53208;DHT22;39093;52.788;6.940;2022-09-09T11:43:14;20.60;99.90
53208;DHT22;39093;52.788;6.940;2022-09-09T11:45:42;20.90;99.90
53208;DHT22;39093;52.788;6.940;2022-09-09T11:48:30;20.80;99.90
53208;DHT22;39093;52.788;6.940;2022-09-09T11:53:26;20.60;99.90
53208;DHT22;39093;52.788;6.940;2022-09-09T11:56:33;20.60;99.90
53208;DHT22;39093;52.788;6.940;2022-09-09T11:59:06;20.40;99.90
53208;DHT22;39093;52.788;6.940;2022-09-09T12:04:16;20.30;99.90
53208;DHT22;39093;52.788;6.940;2022-09-09T12:09:58;20.40;99.90
53208;DHT22;39093;52.788;6.940;2022-09-09T12:12:36;20.40;99.90
53208;DHT22;39093;52.788;6.940;2022-09-09T12:17:44;20.60;99.90
53208;DHT22;39093;52.788;6.940;2022-09-09T12:20:15;20.90;99.90
53208;DHT22;39093;52.788;6.940;2022-09-09T12:26:21;22.00;99.90
53208;DHT22;39093;52.788;6.940;2022-09-09T12:29:08;23.00;99.90
53208;DHT22;39093;52.788;6.940;2022-09-09T12:31:42;23.40;99.60
53208;DHT22;39093;52.788;6.940;2022-09-09T12:34:16;23.50;98.50
53208;DHT22;39093;52.788;6.940;2022-09-09T12:36:48;23.00;98.00
53208;DHT22;39093;52.788;6.940;2022-09-09T12:39:38;22.30;99.80
53208;DHT22;39093;52.788;6.940;2022-09-09T12:42:20;21.90;99.50
53208;DHT22;39093;52.788;6.940;2022-09-09T12:47:33;21.40;99.90
53208;DHT22;39093;52.788;6.940;2022-09-09T12:50:03;21.20;99.90
53208;DHT22;39093;52.788;6.940;2022-09-09T12:52:35;21.00;99.90
53208;DHT22;39093;52.788;6.940;2022-09-09T12:55:05;20.80;99.90
53208;DHT22;39093;52.788;6.940;2022-09-09T12:57:38;20.30;99.90
53208;DHT22;39093;52.788;6.940;2022-09-09T13:00:11;20.70;99.90
53208;DHT22;39093;52.788;6.940;2022-09-09T13:02:50;21.40;99.90
53208;DHT22;39093;52.788;6.940;2022-09-09T13:05:34;22.50;99.90
53208;DHT22;39093;52.788;6.940;2022-09-09T13:08:28;23.50;99.90
53208;DHT22;39093;52.788;6.940;2022-09-09T13:13:37;24.10;99.90
53208;DHT22;39093;52.788;6.940;2022-09-09T13:16:07;23.40;99.90
53208;DHT22;39093;52.788;6.940;2022-09-09T13:18:44;22.70;99.90
53208;DHT22;39093;52.788;6.940;2022-09-09T13:21:11;22.10;99.90
53208;DHT22;39093;52.788;6.940;2022-09-09T13:23:38;21.60;99.90
53208;DHT22;39093;52.788;6.940;2022-09-09T13:26:41;21.20;99.90
53208;DHT22;39093;52.788;6.940;2022-09-09T13:29:18;20.70;99.90
53208;DHT22;39093;52.788;6.940;2022-09-09T13:31:46;20.30;99.90
53208;DHT22;39093;52.788;6.940;2022-09-09T13:34:34;19.90;99.90
53208;DHT22;39093;52.788;6.940;2022-09-09T13:37:06;19.70;99.90
53208;DHT22;39093;52.788;6.940;2022-09-09T13:39:51;19.70;99.90
53208;DHT22;39093;52.788;6.940;2022-09-09T13:42:25;19.70;99.90
53208;DHT22;39093;52.788;6.940;2022-09-09T13:44:52;19.80;99.90
53208;DHT22;39093;52.788;6.940;2022-09-09T13:47:22;20.20;99.90
53208;DHT22;39093;52.788;6.940;2022-09-09T13:49:53;20.80;99.90
53208;DHT22;39093;52.788;6.940;2022-09-09T13:52:20;21.10;99.90
53208;DHT22;39093;52.788;6.940;2022-09-09T13:54:52;20.90;99.90
53208;DHT22;39093;52.788;6.940;2022-09-09T13:57:21;20.70;99.90
53208;DHT22;39093;52.788;6.940;2022-09-09T13:59:53;20.60;99.90
53208;DHT22;39093;52.788;6.940;2022-09-09T14:02:36;20.50;99.90
53208;DHT22;39093;52.788;6.940;2022-09-09T14:05:05;20.50;99.90
53208;DHT22;39093;52.788;6.940;2022-09-09T14:07:32;20.60;99.90
53208;DHT22;39093;52.788;6.940;2022-09-09T14:09:59;20.60;99.90
53208;DHT22;39093;52.788;6.940;2022-09-09T14:12:27;20.50;99.90
53208;DHT22;39093;52.788;6.940;2022-09-09T14:14:53;20.40;99.90
53208;DHT22;39093;52.788;6.940;2022-09-09T14:17:38;20.20;99.90
53208;DHT22;39093;52.788;6.940;2022-09-09T14:20:07;19.90;99.90
53208;DHT22;39093;52.788;6.940;2022-09-09T14:22:35;19.80;99.90
53208;DHT22;39093;52.788;6.940;2022-09-09T14:25:03;19.50;99.90
53208;DHT22;39093;52.788;6.940;2022-09-09T14:27:31;19.30;99.90
53208;DHT22;39093;52.788;6.940;2022-09-09T14:29:58;19.00;99.90
53208;DHT22;39093;52.788;6.940;2022-09-09T14:32:27;18.70;99.90
53208;DHT22;39093;52.788;6.940;2022-09-09T14:34:53;18.60;99.90
53208;DHT22;39093;52.788;6.940;2022-09-09T14:37:20;18.50;99.90
53208;DHT22;39093;52.788;6.940;2022-09-09T14:39:47;18.50;99.90
53208;DHT22;39093;52.788;6.940;2022-09-09T14:42:17;18.40;99.90
53208;DHT22;39093;52.788;6.940;2022-09-09T14:44:44;18.50;99.90
53208;DHT22;39093;52.788;6.940;2022-09-09T14:47:11;18.60;99.90
53208;DHT22;39093;52.788;6.940;2022-09-09T14:49:38;18.60;99.90
53208;DHT22;39093;52.788;6.940;2022-09-09T14:52:09;18.80;99.90
53208;DHT22;39093;52.788;6.940;2022-09-09T14:54:36;18.90;99.90
53208;DHT22;39093;52.788;6.940;2022-09-09T14:57:03;19.20;99.90
53208;DHT22;39093;52.788;6.940;2022-09-09T14:59:30;19.20;99.90
53208;DHT22;39093;52.788;6.940;2022-09-09T15:01:57;19.40;99.90
53208;DHT22;39093;52.788;6.940;2022-09-09T15:04:24;19.50;99.90
53208;DHT22;39093;52.788;6.940;2022-09-09T15:06:51;19.40;99.90
53208;DHT22;39093;52.788;6.940;2022-09-09T15:09:19;19.40;99.90
53208;DHT22;39093;52.788;6.940;2022-09-09T15:11:47;19.40;99.90
53208;DHT22;39093;52.788;6.940;2022-09-09T15:14:14;19.50;99.90
53208;DHT22;39093;52.788;6.940;2022-09-09T15:16:41;19.50;99.90
53208;DHT22;39093;52.788;6.940;2022-09-09T15:19:08;19.50;99.90
53208;DHT22;39093;52.788;6.940;2022-09-09T15:21:37;19.60;99.90
53208;DHT22;39093;52.788;6.940;2022-09-09T15:24:05;19.50;99.90
53208;DHT22;39093;52.788;6.940;2022-09-09T15:26:34;19.40;99.90
53208;DHT22;39093;52.788;6.940;2022-09-09T15:29:05;19.50;99.90
53208;DHT22;39093;52.788;6.940;2022-09-09T15:31:32;19.60;99.90
53208;DHT22;39093;52.788;6.940;2022-09-09T15:34:01;19.60;99.90
53208;DHT22;39093;52.788;6.940;2022-09-09T15:38:59;19.40;99.90
53208;DHT22;39093;52.788;6.940;2022-09-09T15:41:27;19.50;99.90
53208;DHT22;39093;52.788;6.940;2022-09-09T15:43:56;19.60;99.90
53208;DHT22;39093;52.788;6.940;2022-09-09T15:51:42;19.50;99.90
53208;DHT22;39093;52.788;6.940;2022-09-09T15:54:16;19.40;99.90
53208;DHT22;39093;52.788;6.940;2022-09-09T15:56:53;19.40;99.90
53208;DHT22;39093;52.788;6.940;2022-09-09T15:59:26;19.30;99.90
53208;DHT22;39093;52.788;6.940;2022-09-09T16:01:54;19.30;99.90
53208;DHT22;39093;52.788;6.940;2022-09-09T16:04:23;19.10;99.90
53208;DHT22;39093;52.788;6.940;2022-09-09T16:07:04;19.00;99.90
53208;DHT22;39093;52.788;6.940;2022-09-09T16:09:32;19.00;99.90
53208;DHT22;39093;52.788;6.940;2022-09-09T16:12:01;18.90;99.90
53208;DHT22;39093;52.788;6.940;2022-09-09T16:14:28;18.90;99.90
53208;DHT22;39093;52.788;6.940;2022-09-09T16:17:00;18.90;99.90
53208;DHT22;39093;52.788;6.940;2022-09-09T16:19:27;18.80;99.90
53208;DHT22;39093;52.788;6.940;2022-09-09T16:21:54;18.80;99.90
53208;DHT22;39093;52.788;6.940;2022-09-09T16:24:21;18.80;99.90
53208;DHT22;39093;52.788;6.940;2022-09-09T16:26:53;18.80;99.90
53208;DHT22;39093;52.788;6.940;2022-09-09T16:29:22;18.70;99.90
53208;DHT22;39093;52.788;6.940;2022-09-09T16:31:50;18.60;99.90
53208;DHT22;39093;52.788;6.940;2022-09-09T16:34:18;18.60;99.90
53208;DHT22;39093;52.788;6.940;2022-09-09T16:36:48;18.60;99.90
53208;DHT22;39093;52.788;6.940;2022-09-09T16:39:17;18.50;99.90
53208;DHT22;39093;52.788;6.940;2022-09-09T16:41:46;18.60;99.90
53208;DHT22;39093;52.788;6.940;2022-09-09T16:44:15;18.50;99.90
53208;DHT22;39093;52.788;6.940;2022-09-09T16:46:43;18.50;99.90
53208;DHT22;39093;52.788;6.940;2022-09-09T16:49:13;18.50;99.90
53208;DHT22;39093;52.788;6.940;2022-09-09T16:51:50;18.50;99.90
53208;DHT22;39093;52.788;6.940;2022-09-09T16:54:20;18.40;99.90
53208;DHT22;39093;52.788;6.940;2022-09-09T16:56:48;18.40;99.90
53208;DHT22;39093;52.788;6.940;2022-09-09T16:59:18;18.40;99.90
53208;DHT22;39093;52.788;6.940;2022-09-09T17:01:46;18.40;99.90
53208;DHT22;39093;52.788;6.940;2022-09-09T17:04:16;18.40;99.90
53208;DHT22;39093;52.788;6.940;2022-09-09T17:06:48;18.40;99.90
53208;DHT22;39093;52.788;6.940;2022-09-09T17:09:16;18.30;99.90
53208;DHT22;39093;52.788;6.940;2022-09-09T17:11:44;18.30;99.90
53208;DHT22;39093;52.788;6.940;2022-09-09T17:14:14;18.30;99.90
53208;DHT22;39093;52.788;6.940;2022-09-09T17:16:42;18.30;99.90
53208;DHT22;39093;52.788;6.940;2022-09-09T17:19:10;18.30;99.90
53208;DHT22;39093;52.788;6.940;2022-09-09T17:21:37;18.30;99.90
53208;DHT22;39093;52.788;6.940;2022-09-09T17:24:28;18.30;99.90
53208;DHT22;39093;52.788;6.940;2022-09-09T17:26:56;18.30;99.90
53208;DHT22;39093;52.788;6.940;2022-09-09T17:29:24;18.30;99.90
53208;DHT22;39093;52.788;6.940;2022-09-09T17:31:51;18.20;99.90
53208;DHT22;39093;52.788;6.940;2022-09-09T17:34:18;18.20;99.90
53208;DHT22;39093;52.788;6.940;2022-09-09T17:36:45;18.10;99.90
53208;DHT22;39093;52.788;6.940;2022-09-09T17:39:12;18.10;99.90
53208;DHT22;39093;52.788;6.940;2022-09-09T17:41:42;18.10;99.90
53208;DHT22;39093;52.788;6.940;2022-09-09T17:44:09;18.10;99.90
53208;DHT22;39093;52.788;6.940;2022-09-09T17:46:40;18.00;99.90
53208;DHT22;39093;52.788;6.940;2022-09-09T17:49:10;18.00;99.90
53208;DHT22;39093;52.788;6.940;2022-09-09T17:51:38;18.00;99.90
53208;DHT22;39093;52.788;6.940;2022-09-09T17:54:11;18.00;99.90
53208;DHT22;39093;52.788;6.940;2022-09-09T17:56:39;18.00;99.90
53208;DHT22;39093;52.788;6.940;2022-09-09T17:59:09;18.00;99.90
53208;DHT22;39093;52.788;6.940;2022-09-09T18:01:39;18.10;99.90
53208;DHT22;39093;52.788;6.940;2022-09-09T18:04:08;18.00;99.90
53208;DHT22;39093;52.788;6.940;2022-09-09T18:06:38;17.90;99.90
53208;DHT22;39093;52.788;6.940;2022-09-09T18:09:13;17.90;99.90
53208;DHT22;39093;52.788;6.940;2022-09-09T18:11:44;17.80;99.90
53208;DHT22;39093;52.788;6.940;2022-09-09T18:14:14;17.80;99.90
53208;DHT22;39093;52.788;6.940;2022-09-09T18:16:43;17.80;99.90